createdAt,value
2019-01-05T00:02:28.358Z,21.50
2019-01-05T00:05:28.903Z,22.83
2019-01-05T00:08:20.115Z,20.77
2019-01-05T00:11:07.115Z,22.30
2019-01-05T00:13:58.337Z,25.60
2019-01-05T00:16:55.279Z,20.23
2019-01-05T00:19:38.518Z,21.33
2019-01-05T00:22:45.393Z,26.37
2019-01-05T00:25:39.490Z,24.83
2019-01-05T00:28:28.102Z,29.47
2019-01-05T00:31:22.637Z,24.10
2019-01-05T00:34:16.397Z,16.43
2019-01-05T00:37:15.664Z,20.47
2019-01-05T00:40:17.025Z,27.13
2019-01-05T00:43:11.795Z,25.80
2019-01-05T00:46:11.323Z,26.53
2019-01-05T00:49:04.161Z,23.57
2019-01-05T00:51:50.087Z,23.73
2019-01-05T00:54:43.098Z,24.50
2019-01-05T00:57:33.098Z,24.10
2019-01-05T01:00:13.624Z,22.63
2019-01-05T01:03:05.038Z,20.93
2019-01-05T01:05:56.277Z,22.70
2019-01-05T01:08:53.491Z,19.70
2019-01-05T01:11:33.226Z,24.27
2019-01-05T01:14:32.655Z,27.90
2019-01-05T01:17:21.008Z,19.57
2019-01-05T01:20:08.036Z,29.10
2019-01-05T01:23:11.866Z,22.60
2019-01-05T01:26:10.993Z,23.77
2019-01-05T01:28:59.555Z,25.40
2019-01-05T01:31:52.827Z,21.80
2019-01-05T01:34:33.602Z,22.93
2019-01-05T01:37:21.090Z,19.50
2019-01-05T01:40:22.450Z,26.70
2019-01-05T01:43:16.331Z,22.90
2019-01-05T01:46:05.988Z,21.57
2019-01-05T01:49:10.035Z,21.80
2019-01-05T01:52:07.120Z,22.53
2019-01-05T01:54:54.759Z,22.43
2019-01-05T01:57:51.439Z,23.40
2019-01-05T02:00:47.006Z,21.60
2019-01-05T02:03:33.890Z,29.07
2019-01-05T02:06:22.616Z,33.23
2019-01-05T02:09:19.572Z,28.20
2019-01-05T02:12:10.087Z,25.70
2019-01-05T02:15:22.355Z,28.20
2019-01-05T02:18:55.564Z,28.70
2019-01-05T02:22:42.357Z,36.80
2019-01-05T02:26:35.832Z,31.10
2019-01-05T02:30:09.807Z,32.40
2019-01-05T02:33:55.719Z,30.57
2019-01-05T02:37:07.442Z,37.77
2019-01-05T02:40:41.680Z,33.67
2019-01-05T02:44:20.794Z,34.77
2019-01-05T02:47:57.376Z,36.80
2019-01-05T02:51:23.125Z,35.53
2019-01-05T02:54:48.311Z,34.13
2019-01-05T02:58:11.794Z,35.00
2019-01-05T03:01:40.324Z,37.10
2019-01-05T03:05:15.591Z,38.73
2019-01-05T03:08:46.050Z,33.73
2019-01-05T03:12:29.300Z,38.90
2019-01-05T03:16:01.116Z,40.57
2019-01-05T03:19:28.842Z,37.93
2019-01-05T03:23:34.500Z,33.87
2019-01-05T03:27:03.738Z,34.17
2019-01-05T03:30:21.718Z,41.03
2019-01-05T03:34:12.265Z,41.50
2019-01-05T03:37:38.623Z,40.33
2019-01-05T03:41:03.249Z,42.93
2019-01-05T03:44:34.529Z,39.53
2019-01-05T03:48:49.381Z,36.60
2019-01-05T03:52:13.417Z,33.53
2019-01-05T03:55:26.843Z,32.33
2019-01-05T03:59:16.463Z,37.20
2019-01-05T04:03:04.403Z,33.80
2019-01-05T04:06:26.571Z,32.80
2019-01-05T04:09:59.681Z,25.37
2019-01-05T04:13:25.573Z,30.93
2019-01-05T04:17:12.670Z,27.23
2019-01-05T04:20:42.000Z,24.17
2019-01-05T04:24:22.890Z,26.67
2019-01-05T04:27:46.448Z,25.97
2019-01-05T04:31:02.939Z,29.73
2019-01-05T04:34:40.687Z,30.17
2019-01-05T04:37:46.112Z,20.47
2019-01-05T04:41:17.121Z,31.60
2019-01-05T04:45:01.173Z,22.70
2019-01-05T04:48:29.883Z,23.87
2019-01-05T04:52:01.166Z,30.30
2019-01-05T04:55:32.511Z,25.53
2019-01-05T04:59:05.235Z,33.17
2019-01-05T05:02:49.551Z,32.27
2019-01-05T05:06:19.288Z,26.53
2019-01-05T05:09:57.737Z,28.70
2019-01-05T05:13:54.248Z,30.17
2019-01-05T05:17:17.113Z,20.10
2019-01-05T05:20:50.400Z,23.53
2019-01-05T05:24:07.211Z,27.63
2019-01-05T05:27:47.783Z,25.63
2019-01-05T05:31:40.994Z,23.93
2019-01-05T05:35:16.717Z,23.83
2019-01-05T05:38:48.522Z,20.00
2019-01-05T05:42:22.478Z,24.03
2019-01-05T05:46:07.272Z,17.07
2019-01-05T05:49:37.058Z,21.37
2019-01-05T05:53:04.642Z,22.47
2019-01-05T05:56:37.333Z,17.70
2019-01-05T06:00:36.889Z,16.90
2019-01-05T06:04:25.962Z,13.50
2019-01-05T06:08:06.331Z,15.57
2019-01-05T06:11:47.882Z,11.90
2019-01-05T06:15:38.502Z,11.13
2019-01-05T06:19:22.054Z,10.60
2019-01-05T06:22:57.518Z,10.17
2019-01-05T06:26:31.138Z,11.30
2019-01-05T06:30:16.322Z,8.30
2019-01-05T06:33:41.062Z,6.53
2019-01-05T06:37:18.263Z,8.80
2019-01-05T06:40:52.970Z,9.00
2019-01-05T06:44:20.403Z,8.73
2019-01-05T06:47:48.683Z,6.77
2019-01-05T06:51:27.879Z,6.20
2019-01-05T06:55:00.776Z,8.30
2019-01-05T06:58:19.638Z,6.27
2019-01-05T07:02:02.522Z,9.20
2019-01-05T07:05:56.390Z,4.83
2019-01-05T07:09:29.702Z,8.77
2019-01-05T07:13:07.662Z,5.83
2019-01-05T07:16:40.871Z,7.20
2019-01-05T07:20:25.971Z,5.10
2019-01-05T07:23:52.676Z,4.67
2019-01-05T07:27:24.015Z,8.30
2019-01-05T07:30:42.967Z,5.23
2019-01-05T07:34:26.208Z,5.73
2019-01-05T07:38:02.742Z,5.77
2019-01-05T07:41:35.493Z,7.20
2019-01-05T07:44:58.437Z,4.70
2019-01-05T07:48:27.154Z,4.00
2019-01-05T07:51:48.888Z,3.37
2019-01-05T07:55:13.281Z,5.80
2019-01-05T07:58:58.808Z,3.60
2019-01-05T08:02:32.367Z,3.27
2019-01-05T08:06:08.735Z,3.60
2019-01-05T08:09:40.922Z,3.20
2019-01-05T08:13:23.285Z,2.67
2019-01-05T08:16:50.815Z,2.07
2019-01-05T08:20:16.598Z,3.70
2019-01-05T08:24:00.425Z,4.37
2019-01-05T08:27:28.128Z,1.63
2019-01-05T08:30:52.605Z,1.50
2019-01-05T08:34:25.062Z,1.97
2019-01-05T08:38:23.714Z,2.00
2019-01-05T08:41:48.375Z,2.20
2019-01-05T08:45:25.785Z,1.87
2019-01-05T08:48:59.959Z,1.43
2019-01-05T08:52:31.392Z,1.40
2019-01-05T08:56:09.733Z,1.20
2019-01-05T08:59:37.868Z,1.40
2019-01-05T09:03:17.030Z,1.00
2019-01-05T09:07:22.391Z,1.77
2019-01-05T09:10:38.706Z,1.40
2019-01-05T09:14:17.695Z,1.10
2019-01-05T09:17:48.857Z,1.67
2019-01-05T09:21:25.844Z,1.30
2019-01-05T09:25:17.902Z,1.20
2019-01-05T09:28:34.978Z,1.70
2019-01-05T09:32:31.572Z,2.80
2019-01-05T09:36:06.693Z,1.10
2019-01-05T09:39:49.553Z,1.63
2019-01-05T09:43:33.766Z,1.50
2019-01-05T09:47:10.797Z,1.83
2019-01-05T09:51:06.158Z,1.70
2019-01-05T09:54:32.894Z,2.17
2019-01-05T09:58:03.942Z,1.53
2019-01-05T10:01:44.930Z,2.33
2019-01-05T10:05:04.280Z,1.70
2019-01-05T10:08:50.159Z,1.60
2019-01-05T10:12:33.177Z,1.13
2019-01-05T10:15:57.924Z,1.07
2019-01-05T10:19:26.145Z,1.20
2019-01-05T10:22:50.803Z,1.20
2019-01-05T10:26:20.668Z,1.17
2019-01-05T10:30:11.398Z,1.30
2019-01-05T10:33:51.473Z,1.23
2019-01-05T10:37:59.119Z,1.23
2019-01-05T10:41:31.336Z,1.27
2019-01-05T10:45:00.883Z,1.10
2019-01-05T10:48:18.602Z,1.30
2019-01-05T10:51:45.036Z,1.63
2019-01-05T10:55:08.393Z,1.03
2019-01-05T10:58:42.471Z,1.23
2019-01-05T11:02:14.218Z,0.93
2019-01-05T11:05:47.338Z,1.17
2019-01-05T11:09:31.648Z,1.10
2019-01-05T11:13:18.187Z,1.53
2019-01-05T11:16:43.588Z,1.20
2019-01-05T11:20:10.836Z,1.57
2019-01-05T11:23:25.345Z,1.00
2019-01-05T11:26:51.450Z,4.00
2019-01-05T11:30:14.269Z,0.97
2019-01-05T11:33:39.789Z,1.47
2019-01-05T11:37:18.173Z,1.33
2019-01-05T11:40:50.628Z,1.33
2019-01-05T11:44:35.609Z,1.80
2019-01-05T11:48:05.471Z,3.57
2019-01-05T11:51:36.469Z,1.63
2019-01-05T11:55:11.087Z,1.47
2019-01-05T11:58:36.391Z,1.73
2019-01-05T12:02:32.445Z,2.80
2019-01-05T12:05:59.545Z,2.23
2019-01-05T12:09:31.397Z,1.60
2019-01-05T12:12:51.351Z,1.30
2019-01-05T12:16:18.986Z,1.90
2019-01-05T12:19:41.182Z,1.40
2019-01-05T12:23:33.291Z,1.57
2019-01-05T12:27:00.472Z,1.90
2019-01-05T12:30:39.096Z,1.60
2019-01-05T12:33:55.612Z,1.53
2019-01-05T12:37:28.409Z,2.20
2019-01-05T12:41:01.036Z,2.63
2019-01-05T12:44:36.986Z,1.80
2019-01-05T12:48:14.071Z,2.43
2019-01-05T12:52:22.838Z,3.10
2019-01-05T12:55:53.001Z,3.30
2019-01-05T12:59:15.481Z,4.03
2019-01-05T13:02:54.518Z,5.53
2019-01-05T13:06:22.013Z,3.53
2019-01-05T13:10:02.232Z,4.97
2019-01-05T13:13:25.146Z,5.10
2019-01-05T13:16:54.370Z,3.90
2019-01-05T13:20:28.686Z,5.33
2019-01-05T13:24:03.792Z,6.17
2019-01-05T13:27:14.318Z,7.73
2019-01-05T13:30:38.286Z,5.37
2019-01-05T13:34:21.718Z,7.83
2019-01-05T13:38:18.374Z,7.67
2019-01-05T13:42:14.507Z,14.30
2019-01-05T13:45:38.072Z,5.93
2019-01-05T13:49:23.049Z,8.97
2019-01-05T13:52:36.869Z,7.47
2019-01-05T13:55:41.121Z,6.07
2019-01-05T13:58:36.924Z,7.00
2019-01-05T14:01:37.066Z,8.37
2019-01-05T14:04:28.327Z,5.57
2019-01-05T14:07:25.578Z,4.97
2019-01-05T14:10:19.800Z,5.63
2019-01-05T14:13:16.929Z,4.63
2019-01-05T14:16:05.152Z,10.10
2019-01-05T14:19:11.700Z,6.80
2019-01-05T14:21:59.899Z,5.30
2019-01-05T14:24:49.567Z,7.40
2019-01-05T14:27:36.735Z,5.33
2019-01-05T14:30:41.109Z,6.17
2019-01-05T14:33:28.104Z,5.47
2019-01-05T14:36:16.385Z,5.57
2019-01-05T14:39:14.895Z,8.20
2019-01-05T14:42:02.029Z,5.53
2019-01-05T14:44:56.277Z,3.83
2019-01-05T14:47:47.457Z,5.63
2019-01-05T14:50:34.529Z,6.03
2019-01-05T14:53:21.452Z,5.63
2019-01-05T14:56:06.001Z,9.00
2019-01-05T14:58:53.078Z,12.17
2019-01-05T15:01:47.501Z,7.13
2019-01-05T15:04:34.431Z,7.43
2019-01-05T15:07:25.510Z,7.90
2019-01-05T15:10:12.869Z,6.67
2019-01-05T15:13:07.372Z,8.77
2019-01-05T15:15:54.289Z,9.20
2019-01-05T15:18:41.651Z,9.73
2019-01-05T15:21:32.858Z,8.13
2019-01-05T15:24:23.528Z,10.80
2019-01-05T15:27:10.499Z,7.23
2019-01-05T15:29:58.784Z,15.10
2019-01-05T15:32:59.242Z,7.20
2019-01-05T15:35:47.645Z,9.47
2019-01-05T15:38:36.004Z,7.80
2019-01-05T15:41:24.207Z,11.27
2019-01-05T15:44:14.754Z,9.43
2019-01-05T15:47:06.063Z,11.40
2019-01-05T15:50:00.532Z,12.73
2019-01-05T15:52:47.467Z,9.33
2019-01-05T15:55:38.756Z,10.97
2019-01-05T15:58:25.622Z,14.07
2019-01-05T16:01:29.292Z,13.17
2019-01-05T16:04:16.530Z,10.67
2019-01-05T16:07:04.742Z,6.77
2019-01-05T16:09:55.980Z,9.90
2019-01-05T16:12:45.874Z,11.93
2019-01-05T16:15:52.240Z,10.37
2019-01-05T16:18:49.003Z,6.63
2019-01-05T16:21:38.009Z,11.80
2019-01-05T16:24:25.695Z,9.63
2019-01-05T16:27:12.902Z,10.60
2019-01-05T16:30:07.823Z,8.47
2019-01-05T16:33:02.591Z,9.30
2019-01-05T16:35:48.878Z,8.43
2019-01-05T16:38:36.301Z,7.63
2019-01-05T16:41:23.313Z,8.87
2019-01-05T16:44:29.935Z,4.97
2019-01-05T16:47:18.379Z,8.00
2019-01-05T16:50:07.826Z,8.43
2019-01-05T16:52:55.057Z,5.80
2019-01-05T16:55:42.193Z,8.30
2019-01-05T16:58:29.368Z,7.90
2019-01-05T17:01:22.576Z,7.73
2019-01-05T17:04:05.736Z,5.43
2019-01-05T17:06:54.054Z,8.13
2019-01-05T17:09:42.517Z,6.90
2019-01-05T17:12:29.411Z,5.87
2019-01-05T17:15:16.956Z,7.47
2019-01-05T17:18:04.280Z,7.93
2019-01-05T17:20:52.585Z,6.03
2019-01-05T17:23:39.569Z,4.23
2019-01-05T17:26:26.557Z,7.03
2019-01-05T17:29:14.789Z,9.90
2019-01-05T17:32:02.255Z,9.87
2019-01-05T17:35:02.726Z,5.80
2019-01-05T17:37:50.918Z,8.83
2019-01-05T17:40:42.497Z,6.97
2019-01-05T17:43:40.016Z,7.60
2019-01-05T17:46:28.230Z,7.77
2019-01-05T17:49:28.390Z,6.17
2019-01-05T17:52:34.805Z,6.67
2019-01-05T17:55:20.640Z,5.67
2019-01-05T17:58:06.840Z,7.07
2019-01-05T18:01:13.821Z,5.63
2019-01-05T18:04:01.094Z,7.27
2019-01-05T18:06:58.391Z,6.60
2019-01-05T18:09:45.904Z,6.10
2019-01-05T18:12:33.078Z,5.67
2019-01-05T18:15:24.436Z,5.60
2019-01-05T18:18:24.925Z,6.90
2019-01-05T18:21:11.998Z,5.50
2019-01-05T18:23:58.971Z,5.60
2019-01-05T18:26:51.290Z,6.03
2019-01-05T18:29:39.592Z,6.90
2019-01-05T18:32:29.258Z,6.47
2019-01-05T18:35:16.617Z,7.20
2019-01-05T18:38:06.056Z,5.70
2019-01-05T18:41:12.846Z,6.83
2019-01-05T18:44:05.175Z,6.60
2019-01-05T18:46:52.340Z,6.67
2019-01-05T18:49:39.336Z,8.30
2019-01-05T18:52:26.587Z,6.57
2019-01-05T18:55:27.018Z,6.57
2019-01-05T18:58:14.254Z,6.43
2019-01-05T19:01:01.090Z,8.03
2019-01-05T19:04:01.701Z,7.10
2019-01-05T19:06:56.290Z,6.20
2019-01-05T19:09:45.314Z,7.20
2019-01-05T19:12:32.503Z,5.70
2019-01-05T19:15:39.000Z,5.70
2019-01-05T19:18:27.294Z,9.03
2019-01-05T19:21:08.120Z,10.20
2019-01-05T19:24:05.345Z,7.40
2019-01-05T19:26:56.845Z,8.77
2019-01-05T19:29:43.838Z,9.07
2019-01-05T19:32:31.342Z,8.90
2019-01-05T19:35:23.009Z,9.00
2019-01-05T19:38:29.030Z,9.03
2019-01-05T19:41:20.145Z,6.97
2019-01-05T19:44:08.642Z,6.67
2019-01-05T19:47:04.209Z,8.67
2019-01-05T19:49:48.410Z,7.17
2019-01-05T19:52:46.092Z,8.70
2019-01-05T19:55:33.002Z,7.43
2019-01-05T19:58:21.212Z,8.37
2019-01-05T20:01:21.613Z,6.63
2019-01-05T20:04:08.486Z,5.27
2019-01-05T20:06:59.652Z,6.13
2019-01-05T20:09:57.174Z,8.67
2019-01-05T20:12:45.474Z,9.10
2019-01-05T20:15:32.870Z,10.47
2019-01-05T20:18:39.295Z,7.87
2019-01-05T20:21:20.613Z,6.03
2019-01-05T20:24:07.306Z,9.20
2019-01-05T20:27:11.728Z,8.07
2019-01-05T20:30:02.469Z,8.33
2019-01-05T20:32:53.502Z,9.37
2019-01-05T20:35:41.666Z,9.00
2019-01-05T20:38:28.618Z,11.60
2019-01-05T20:41:15.900Z,8.20
2019-01-05T20:44:02.785Z,5.80
2019-01-05T20:47:05.825Z,5.30
2019-01-05T20:49:52.940Z,7.87
2019-01-05T20:52:44.191Z,7.03
2019-01-05T20:55:50.490Z,5.93
2019-01-05T20:58:38.755Z,6.00
2019-01-05T21:01:36.296Z,8.50
2019-01-05T21:04:30.562Z,13.60
2019-01-05T21:07:17.599Z,6.27
2019-01-05T21:10:04.500Z,6.97
2019-01-05T21:13:11.096Z,8.67
2019-01-05T21:15:58.141Z,7.10
2019-01-05T21:18:58.457Z,8.23
2019-01-05T21:21:39.032Z,7.80
2019-01-05T21:24:25.954Z,9.23
2019-01-05T21:27:13.104Z,6.20
2019-01-05T21:30:05.677Z,8.60
2019-01-05T21:32:52.690Z,7.03
2019-01-05T21:35:53.239Z,8.30
2019-01-05T21:38:40.062Z,5.40
2019-01-05T21:41:24.501Z,6.20
2019-01-05T21:44:20.882Z,7.90
2019-01-05T21:47:27.201Z,6.90
2019-01-05T21:50:15.429Z,8.33
2019-01-05T21:53:12.232Z,7.77
2019-01-05T21:56:06.673Z,10.20
2019-01-05T21:58:50.945Z,6.30
2019-01-05T22:01:43.546Z,6.97
2019-01-05T22:04:32.314Z,8.50
2019-01-05T22:07:29.708Z,7.50
2019-01-05T22:10:56.468Z,6.20
2019-01-05T22:13:50.988Z,6.00
2019-01-05T22:16:38.233Z,5.50
2019-01-05T22:19:38.962Z,8.30
2019-01-05T22:22:26.044Z,8.63
2019-01-05T22:25:13.347Z,8.53
2019-01-05T22:28:10.838Z,6.87
2019-01-05T22:31:00.622Z,8.03
2019-01-05T22:33:49.152Z,7.37
2019-01-05T22:36:32.506Z,7.70
2019-01-05T22:39:23.706Z,6.70
2019-01-05T22:42:06.752Z,9.37
2019-01-05T22:45:03.914Z,5.40
2019-01-05T22:47:58.924Z,6.87
2019-01-05T22:51:00.030Z,7.10
2019-01-05T22:53:57.575Z,6.73
2019-01-05T22:56:44.546Z,6.57
2019-01-05T22:59:48.073Z,10.00
2019-01-05T23:02:45.453Z,7.63
2019-01-05T23:05:44.421Z,11.53
2019-01-05T23:08:28.958Z,8.43
2019-01-05T23:11:18.946Z,10.93
2019-01-05T23:14:06.106Z,10.70
2019-01-05T23:17:02.513Z,10.20
2019-01-05T23:20:00.098Z,10.33
2019-01-05T23:22:59.909Z,10.80
2019-01-05T23:25:47.364Z,11.03
2019-01-05T23:28:35.537Z,9.43
2019-01-05T23:31:36.657Z,8.60
2019-01-05T23:34:34.235Z,7.93
2019-01-05T23:37:21.547Z,8.60
2019-01-05T23:40:15.002Z,11.90
2019-01-05T23:43:18.517Z,8.77
2019-01-05T23:46:05.526Z,9.87
2019-01-05T23:48:52.249Z,10.60
2019-01-05T23:51:39.485Z,7.53
2019-01-05T23:54:26.575Z,6.77
2019-01-05T23:57:22.696Z,6.87
